createdAt,value
2023-04-26T00:00:54.986Z,2.60
2023-04-26T00:03:22.907Z,2.70
2023-04-26T00:05:50.388Z,2.90
2023-04-26T00:08:17.423Z,2.90
2023-04-26T00:10:44.320Z,2.90
2023-04-26T00:13:11.289Z,2.70
2023-04-26T00:15:38.057Z,2.60
2023-04-26T00:18:05.568Z,2.70
2023-04-26T00:20:32.335Z,3.00
2023-04-26T00:22:59.490Z,3.00
2023-04-26T00:25:26.439Z,3.00
2023-04-26T00:27:53.404Z,2.90
2023-04-26T00:30:20.888Z,3.00
2023-04-26T00:32:47.830Z,2.80
2023-04-26T00:35:14.866Z,3.00
2023-04-26T00:37:41.814Z,2.70
2023-04-26T00:40:09.902Z,2.70
2023-04-26T00:42:38.171Z,2.50
2023-04-26T00:45:06.900Z,2.70
2023-04-26T00:47:33.725Z,2.30
2023-04-26T00:50:00.826Z,2.60
2023-04-26T00:52:27.634Z,3.00
2023-04-26T00:54:55.871Z,2.50
2023-04-26T00:57:22.798Z,2.70
2023-04-26T00:59:49.742Z,2.70
2023-04-26T01:02:17.163Z,2.60
2023-04-26T01:04:45.170Z,2.70
2023-04-26T01:07:13.253Z,2.30
2023-04-26T01:09:40.219Z,2.80
2023-04-26T01:12:07.242Z,2.50
2023-04-26T01:14:36.273Z,2.30
2023-04-26T01:17:03.341Z,2.40
2023-04-26T01:19:31.954Z,2.70
2023-04-26T01:21:58.738Z,2.90
2023-04-26T01:24:25.575Z,2.40
2023-04-26T01:26:52.617Z,2.60
2023-04-26T01:31:48.285Z,2.30
2023-04-26T01:34:15.246Z,2.50
2023-04-26T01:36:42.170Z,2.10
2023-04-26T01:39:09.094Z,2.40
2023-04-26T01:41:36.267Z,2.60
2023-04-26T01:44:03.416Z,2.20
2023-04-26T01:46:31.596Z,2.50
2023-04-26T01:48:58.693Z,1.90
2023-04-26T01:51:26.672Z,2.60
2023-04-26T01:53:53.620Z,2.20
2023-04-26T01:56:20.585Z,2.20
2023-04-26T01:58:47.563Z,2.30
2023-04-26T02:01:14.477Z,2.00
2023-04-26T02:03:41.378Z,2.30
2023-04-26T02:06:09.304Z,1.80
2023-04-26T02:08:36.465Z,2.20
2023-04-26T02:11:03.323Z,2.00
2023-04-26T02:13:30.754Z,2.00
2023-04-26T02:15:57.562Z,2.10
2023-04-26T02:18:24.862Z,2.40
2023-04-26T02:20:52.035Z,2.30
2023-04-26T02:23:19.394Z,2.00
2023-04-26T02:25:47.055Z,2.40
2023-04-26T02:28:14.210Z,2.30
2023-04-26T02:30:41.566Z,2.50
2023-04-26T02:33:09.208Z,2.40
2023-04-26T02:35:36.925Z,2.40
2023-04-26T02:38:04.429Z,2.10
2023-04-26T02:40:31.544Z,2.50
2023-04-26T02:42:58.502Z,2.30
2023-04-26T02:45:25.634Z,2.20
2023-04-26T02:47:53.217Z,2.30
2023-04-26T02:50:20.576Z,2.20
2023-04-26T02:52:47.754Z,2.10
2023-04-26T02:55:14.676Z,2.40
2023-04-26T02:57:41.847Z,2.10
2023-04-26T03:00:09.532Z,2.40
2023-04-26T03:02:37.505Z,2.40
2023-04-26T03:05:04.617Z,2.20
2023-04-26T03:07:32.535Z,2.40
2023-04-26T03:09:59.913Z,2.40
2023-04-26T03:12:26.730Z,2.60
2023-04-26T03:14:53.688Z,2.60
2023-04-26T03:17:21.125Z,2.80
2023-04-26T03:19:47.884Z,2.90
2023-04-26T03:22:15.841Z,2.70
2023-04-26T03:24:43.940Z,3.00
2023-04-26T03:27:11.567Z,2.50
2023-04-26T03:29:39.027Z,3.30
2023-04-26T03:32:06.815Z,3.30
2023-04-26T03:34:34.218Z,3.10
2023-04-26T03:37:01.686Z,3.00
2023-04-26T03:39:29.420Z,3.30
2023-04-26T03:41:56.636Z,3.30
2023-04-26T03:44:23.589Z,3.20
2023-04-26T03:46:50.601Z,2.80
2023-04-26T03:49:17.583Z,3.20
2023-04-26T03:51:44.513Z,3.10
2023-04-26T03:54:11.331Z,2.90
2023-04-26T03:56:39.649Z,3.40
2023-04-26T03:59:06.807Z,3.80
2023-04-26T04:01:34.282Z,3.00
2023-04-26T04:04:01.482Z,3.40
2023-04-26T04:06:29.563Z,3.40
2023-04-26T04:08:56.327Z,3.60
2023-04-26T04:11:24.053Z,3.40
2023-04-26T04:13:51.093Z,3.70
2023-04-26T04:16:18.213Z,3.10
2023-04-26T04:18:45.268Z,3.60
2023-04-26T04:21:12.089Z,3.50
2023-04-26T04:23:39.621Z,3.10
2023-04-26T04:26:09.672Z,3.00
2023-04-26T04:28:36.460Z,3.20
2023-04-26T04:31:03.595Z,3.10
2023-04-26T04:33:32.303Z,3.20
2023-04-26T04:35:59.996Z,3.50
2023-04-26T04:38:26.919Z,3.70
2023-04-26T04:40:54.042Z,4.60
2023-04-26T04:43:21.247Z,4.40
2023-04-26T04:45:49.034Z,4.60
2023-04-26T04:48:18.059Z,4.10
2023-04-26T04:50:46.492Z,3.80
2023-04-26T04:53:14.010Z,4.80
2023-04-26T04:55:41.057Z,4.50
2023-04-26T04:58:08.641Z,4.20
2023-04-26T05:00:37.507Z,4.20
2023-04-26T05:03:14.716Z,4.10
2023-04-26T05:05:41.702Z,4.00
2023-04-26T05:08:09.240Z,3.40
2023-04-26T05:10:36.427Z,3.30
2023-04-26T05:13:03.309Z,3.70
2023-04-26T05:15:30.412Z,3.50
2023-04-26T05:17:59.039Z,3.50
2023-04-26T05:20:26.077Z,3.00
2023-04-26T05:22:53.224Z,3.20
2023-04-26T05:25:22.496Z,2.50
2023-04-26T05:27:54.267Z,2.70
2023-04-26T05:30:47.369Z,2.70
2023-04-26T05:33:43.197Z,2.60
2023-04-26T05:36:17.032Z,2.60
2023-04-26T05:38:44.083Z,2.20
2023-04-26T05:41:11.263Z,2.70
2023-04-26T05:43:38.738Z,2.40
2023-04-26T05:46:06.192Z,2.50
2023-04-26T05:51:00.812Z,2.00
2023-04-26T05:53:27.761Z,2.10
2023-04-26T05:55:54.808Z,2.10
2023-04-26T05:58:23.842Z,2.00
2023-04-26T06:00:50.700Z,2.20
2023-04-26T06:03:19.018Z,2.10
2023-04-26T06:05:46.177Z,2.10
2023-04-26T06:08:13.539Z,2.20
2023-04-26T06:10:40.614Z,2.30
2023-04-26T06:13:08.024Z,2.50
2023-04-26T06:15:36.004Z,2.30
2023-04-26T06:18:04.625Z,2.30
2023-04-26T06:20:32.531Z,2.30
2023-04-26T06:22:59.521Z,2.30
2023-04-26T06:25:26.576Z,2.20
2023-04-26T06:27:54.133Z,2.30
2023-04-26T06:30:21.029Z,2.50
2023-04-26T06:32:48.353Z,2.20
2023-04-26T06:35:16.041Z,2.30
2023-04-26T06:37:43.593Z,2.10
2023-04-26T06:40:13.519Z,2.20
2023-04-26T06:42:40.813Z,2.40
2023-04-26T06:45:18.363Z,1.90
2023-04-26T06:47:46.157Z,1.80
2023-04-26T06:50:14.043Z,2.00
2023-04-26T06:52:41.093Z,2.20
2023-04-26T06:55:08.477Z,2.30
2023-04-26T06:57:35.683Z,2.10
2023-04-26T07:00:03.759Z,2.20
2023-04-26T07:02:30.968Z,2.00
2023-04-26T07:04:57.969Z,2.60
2023-04-26T07:07:25.245Z,2.20
2023-04-26T07:09:52.416Z,2.50
2023-04-26T07:12:20.437Z,2.40
2023-04-26T07:14:47.283Z,2.30
2023-04-26T07:17:14.353Z,2.50
2023-04-26T07:19:41.654Z,3.10
2023-04-26T07:22:08.867Z,3.10
2023-04-26T07:24:36.455Z,2.80
2023-04-26T07:27:03.759Z,3.00
2023-04-26T07:29:30.704Z,2.70
2023-04-26T07:31:58.395Z,3.40
2023-04-26T07:34:25.307Z,3.10
2023-04-26T07:36:52.479Z,3.40
2023-04-26T07:39:19.397Z,2.90
2023-04-26T07:41:46.167Z,3.10
2023-04-26T07:44:13.010Z,2.90
2023-04-26T07:46:40.433Z,2.80
2023-04-26T07:49:07.676Z,2.70
2023-04-26T07:51:35.986Z,2.40
2023-04-26T07:54:02.974Z,2.60
2023-04-26T07:56:29.846Z,3.00
2023-04-26T07:58:56.753Z,2.70
2023-04-26T08:01:24.045Z,2.90
2023-04-26T08:03:51.126Z,2.90
2023-04-26T08:06:18.176Z,3.00
2023-04-26T08:08:48.928Z,2.80
2023-04-26T08:11:16.470Z,2.70
2023-04-26T08:13:43.571Z,3.10
2023-04-26T08:16:10.625Z,3.20
2023-04-26T08:18:37.495Z,3.30
2023-04-26T08:21:04.694Z,3.00
2023-04-26T08:23:36.051Z,2.70
2023-04-26T08:26:03.501Z,3.50
2023-04-26T08:28:30.348Z,3.80
2023-04-26T08:30:57.887Z,3.50
2023-04-26T08:33:25.167Z,3.30
2023-04-26T08:35:52.292Z,3.30
2023-04-26T08:38:19.329Z,3.10
2023-04-26T08:40:46.499Z,3.10
2023-04-26T08:43:13.385Z,2.70
2023-04-26T08:45:41.066Z,3.00
2023-04-26T08:48:11.311Z,2.60
2023-04-26T08:50:38.405Z,2.50
2023-04-26T08:53:05.667Z,2.90
2023-04-26T08:55:32.477Z,2.90
2023-04-26T08:57:59.347Z,2.50
2023-04-26T09:00:26.995Z,2.90
2023-04-26T09:02:54.148Z,2.30
2023-04-26T09:05:23.616Z,2.50
2023-04-26T09:07:51.072Z,2.80
2023-04-26T09:10:21.746Z,2.40
2023-04-26T09:12:51.836Z,2.70
2023-04-26T09:15:20.802Z,2.70
2023-04-26T09:17:49.185Z,2.60
2023-04-26T09:20:23.251Z,2.70
2023-04-26T09:22:51.361Z,2.40
2023-04-26T09:25:19.805Z,2.90
2023-04-26T09:27:46.834Z,3.00
2023-04-26T09:30:17.818Z,2.60
2023-04-26T09:33:11.129Z,2.80
2023-04-26T09:35:39.955Z,3.40
2023-04-26T09:38:14.762Z,3.30
2023-04-26T09:40:43.309Z,3.20
2023-04-26T09:43:13.852Z,3.30
2023-04-26T09:45:51.494Z,3.10
2023-04-26T09:51:17.883Z,2.80
2023-04-26T09:53:49.437Z,2.90
2023-04-26T09:56:18.356Z,3.10
2023-04-26T09:58:57.774Z,3.40
2023-04-26T10:01:25.886Z,3.40
2023-04-26T10:03:53.140Z,3.30
2023-04-26T10:06:20.385Z,3.60
2023-04-26T10:08:47.613Z,3.10
2023-04-26T10:11:14.975Z,3.90
2023-04-26T10:13:42.491Z,3.50
2023-04-26T10:16:09.488Z,3.80
2023-04-26T10:18:36.986Z,3.40
2023-04-26T10:21:24.335Z,3.30
2023-04-26T10:23:51.202Z,3.30
2023-04-26T10:26:51.365Z,3.10
2023-04-26T10:29:21.742Z,3.30
2023-04-26T10:32:08.917Z,3.30
2023-04-26T10:34:36.953Z,3.30
2023-04-26T10:37:13.365Z,3.40
2023-04-26T10:39:41.531Z,3.30
2023-04-26T10:42:31.749Z,3.30
2023-04-26T10:44:59.307Z,3.50
2023-04-26T10:47:31.190Z,3.30
2023-04-26T10:50:05.637Z,3.50
2023-04-26T10:52:33.265Z,3.50
2023-04-26T10:55:00.216Z,3.10
2023-04-26T10:57:47.102Z,3.60
2023-04-26T11:00:25.437Z,3.20
2023-04-26T11:02:53.399Z,3.00
2023-04-26T11:05:42.078Z,3.70
2023-04-26T11:08:16.164Z,3.20
2023-04-26T11:10:46.023Z,3.40
2023-04-26T11:13:24.465Z,3.10
2023-04-26T11:15:54.969Z,3.50
2023-04-26T11:20:32.824Z,3.20
2023-04-26T11:22:59.912Z,2.80
2023-04-26T11:25:27.812Z,3.00
2023-04-26T11:28:02.096Z,2.90
2023-04-26T11:30:31.126Z,3.30
2023-04-26T11:32:59.223Z,2.80
2023-04-26T11:35:27.195Z,2.80
2023-04-26T11:37:54.104Z,2.80
2023-04-26T11:40:21.321Z,3.00
2023-04-26T11:42:48.503Z,2.50
2023-04-26T11:45:15.962Z,3.00
2023-04-26T11:47:44.175Z,3.00
2023-04-26T11:50:11.598Z,2.60
2023-04-26T11:52:38.829Z,2.70
2023-04-26T11:55:06.703Z,2.80
2023-04-26T11:57:34.283Z,2.70
2023-04-26T12:00:10.907Z,3.00
2023-04-26T12:05:08.415Z,3.00
2023-04-26T12:07:37.109Z,2.50
2023-04-26T12:10:20.637Z,3.10
2023-04-26T12:12:50.588Z,2.90
2023-04-26T12:15:18.393Z,3.10
2023-04-26T12:18:14.747Z,3.20
2023-04-26T12:20:42.255Z,3.00
2023-04-26T12:23:12.545Z,2.70
2023-04-26T12:25:40.598Z,3.20
2023-04-26T12:28:11.957Z,3.60
2023-04-26T12:30:39.540Z,3.20
2023-04-26T12:33:16.658Z,3.50
2023-04-26T12:35:44.880Z,2.90
2023-04-26T12:38:12.821Z,3.10
2023-04-26T12:40:40.110Z,3.40
2023-04-26T12:43:07.328Z,3.60
2023-04-26T12:45:34.295Z,3.50
2023-04-26T12:48:01.650Z,3.40
2023-04-26T12:50:29.136Z,3.40
2023-04-26T12:52:56.217Z,3.70
2023-04-26T12:55:23.610Z,3.20
2023-04-26T12:57:50.550Z,3.80
2023-04-26T13:00:18.015Z,3.60
2023-04-26T13:02:45.925Z,3.80
2023-04-26T13:07:42.184Z,3.50
2023-04-26T13:10:12.037Z,3.50
2023-04-26T13:12:40.489Z,3.70
2023-04-26T13:15:08.037Z,3.40
2023-04-26T13:17:38.728Z,3.20
2023-04-26T13:20:06.546Z,3.50
2023-04-26T13:25:00.528Z,3.60
2023-04-26T13:27:29.860Z,3.00
2023-04-26T13:29:58.142Z,3.50
2023-04-26T13:32:25.093Z,3.20
2023-04-26T13:34:52.802Z,3.20
2023-04-26T13:42:15.769Z,3.50
2023-04-26T13:44:42.760Z,3.00
2023-04-26T13:47:09.626Z,3.20
2023-04-26T13:49:38.192Z,3.50
2023-04-26T13:52:05.413Z,3.20
2023-04-26T13:54:32.512Z,3.30
2023-04-26T13:56:59.425Z,3.30
2023-04-26T13:59:26.346Z,2.90
2023-04-26T14:01:55.123Z,2.70
2023-04-26T14:04:24.258Z,3.10
2023-04-26T14:06:51.970Z,3.60
2023-04-26T14:09:18.997Z,3.40
2023-04-26T14:11:51.539Z,3.80
2023-04-26T14:14:24.491Z,3.40
2023-04-26T14:16:51.389Z,4.20
2023-04-26T14:19:18.232Z,3.90
2023-04-26T14:21:45.538Z,3.70
2023-04-26T14:24:12.764Z,4.70
2023-04-26T14:26:39.937Z,4.50
2023-04-26T14:29:06.798Z,3.80
2023-04-26T14:31:33.760Z,4.10
2023-04-26T14:34:00.809Z,7.70
2023-04-26T14:36:27.693Z,6.40
2023-04-26T14:38:55.091Z,6.00
2023-04-26T14:41:23.002Z,4.70
2023-04-26T14:46:17.382Z,3.70
2023-04-26T14:48:44.476Z,3.40
2023-04-26T14:51:11.790Z,3.30
2023-04-26T14:53:38.779Z,3.70
2023-04-26T14:56:06.946Z,3.20
2023-04-26T14:58:34.204Z,3.60
2023-04-26T15:01:01.897Z,3.80
2023-04-26T15:03:29.220Z,3.40
2023-04-26T15:05:56.277Z,3.70
2023-04-26T15:08:23.065Z,3.70
2023-04-26T15:10:50.939Z,3.70
2023-04-26T15:13:18.066Z,4.40
2023-04-26T15:15:45.316Z,4.30
2023-04-26T15:18:12.143Z,4.00
2023-04-26T15:20:40.516Z,3.40
2023-04-26T15:23:07.907Z,3.60
2023-04-26T15:25:36.353Z,4.20
2023-04-26T15:28:03.990Z,4.10
2023-04-26T15:30:31.098Z,4.10
2023-04-26T15:32:58.113Z,3.70
2023-04-26T15:35:25.436Z,3.60
2023-04-26T15:37:53.398Z,3.70
2023-04-26T15:42:48.787Z,3.60
2023-04-26T15:45:15.884Z,3.00
2023-04-26T15:47:42.864Z,3.50
2023-04-26T15:50:10.309Z,3.20
2023-04-26T15:52:39.233Z,3.60
2023-04-26T15:55:06.801Z,3.40
2023-04-26T15:57:34.150Z,3.20
2023-04-26T16:00:01.502Z,3.40
2023-04-26T16:02:31.914Z,3.20
2023-04-26T16:04:59.122Z,3.60
2023-04-26T16:07:25.922Z,2.80
2023-04-26T16:09:52.670Z,3.10
2023-04-26T16:12:19.796Z,2.80
2023-04-26T16:14:48.387Z,2.50
2023-04-26T16:17:15.520Z,2.90
2023-04-26T16:19:42.414Z,3.10
2023-04-26T16:22:09.370Z,2.80
2023-04-26T16:24:36.700Z,2.80
2023-04-26T16:27:04.306Z,2.90
2023-04-26T16:31:58.600Z,2.30
2023-04-26T16:34:26.352Z,2.60
2023-04-26T16:36:53.399Z,2.60
2023-04-26T16:39:20.962Z,2.80
2023-04-26T16:41:47.915Z,2.60
2023-04-26T16:44:16.012Z,2.70
2023-04-26T16:46:43.436Z,3.20
2023-04-26T16:49:11.027Z,3.00
2023-04-26T16:51:37.867Z,3.30
2023-04-26T16:54:04.996Z,3.10
2023-04-26T16:56:32.095Z,3.30
2023-04-26T16:58:59.194Z,3.00
2023-04-26T17:01:26.420Z,3.40
2023-04-26T17:03:53.711Z,3.20
2023-04-26T17:06:20.952Z,2.80
2023-04-26T17:08:47.945Z,3.30
2023-04-26T17:11:17.573Z,3.50
2023-04-26T17:13:44.546Z,3.50
2023-04-26T17:16:11.915Z,4.00
2023-04-26T17:18:39.318Z,3.70
2023-04-26T17:21:06.563Z,3.80
2023-04-26T17:23:34.148Z,3.60
2023-04-26T17:26:01.559Z,4.10
2023-04-26T17:28:28.935Z,4.20
2023-04-26T17:30:55.923Z,4.10
2023-04-26T17:33:25.043Z,4.20
2023-04-26T17:38:19.084Z,3.40
2023-04-26T17:40:46.194Z,3.90
2023-04-26T17:43:13.149Z,4.20
2023-04-26T17:45:40.219Z,4.40
2023-04-26T17:48:12.273Z,4.00
2023-04-26T17:50:39.388Z,4.30
2023-04-26T17:53:06.688Z,4.10
2023-04-26T17:55:34.376Z,4.70
2023-04-26T17:58:01.222Z,4.00
2023-04-26T18:00:28.074Z,4.50
2023-04-26T18:02:57.215Z,4.90
2023-04-26T18:05:24.409Z,4.20
2023-04-26T18:07:51.768Z,4.20
2023-04-26T18:10:18.742Z,4.30
2023-04-26T18:12:45.746Z,4.60
2023-04-26T18:15:13.291Z,4.30
2023-04-26T18:17:40.794Z,4.20
2023-04-26T18:20:08.764Z,4.50
2023-04-26T18:22:36.566Z,4.80
2023-04-26T18:25:03.880Z,5.30
2023-04-26T18:29:58.406Z,5.40
2023-04-26T18:32:25.903Z,5.60
2023-04-26T18:34:52.964Z,5.10
2023-04-26T18:37:19.777Z,5.60
2023-04-26T18:39:48.083Z,5.30
2023-04-26T18:42:15.271Z,6.20
2023-04-26T18:44:42.090Z,6.50
2023-04-26T18:47:09.152Z,6.30
2023-04-26T18:49:36.156Z,6.90
2023-04-26T18:52:03.513Z,6.70
2023-04-26T18:54:31.674Z,7.40
2023-04-26T18:59:25.787Z,7.90
2023-04-26T19:01:53.796Z,7.50
2023-04-26T19:04:21.343Z,8.20
2023-04-26T19:06:48.238Z,8.10
2023-04-26T19:09:16.217Z,8.20
2023-04-26T19:11:43.101Z,7.20
2023-04-26T19:14:09.982Z,7.60
2023-04-26T19:16:38.067Z,8.20
2023-04-26T19:19:05.205Z,7.80
2023-04-26T19:21:32.719Z,8.30
2023-04-26T19:23:59.624Z,7.70
2023-04-26T19:26:26.726Z,8.30
2023-04-26T19:28:55.247Z,7.80
2023-04-26T19:31:22.765Z,8.60
2023-04-26T19:33:49.885Z,8.70
2023-04-26T19:36:19.008Z,8.80
2023-04-26T19:38:48.060Z,9.40
2023-04-26T19:41:15.218Z,9.50
2023-04-26T19:43:42.004Z,9.80
2023-04-26T19:46:14.905Z,9.30
2023-04-26T19:48:41.839Z,9.30
2023-04-26T19:51:13.940Z,9.10
2023-04-26T19:53:40.826Z,8.80
2023-04-26T19:56:13.049Z,9.10
2023-04-26T19:58:41.353Z,8.80
2023-04-26T20:01:08.517Z,9.30
2023-04-26T20:03:37.672Z,10.70
2023-04-26T20:06:05.011Z,11.00
2023-04-26T20:08:32.064Z,12.80
2023-04-26T20:11:03.033Z,12.80
2023-04-26T20:13:30.803Z,12.70
2023-04-26T20:15:58.234Z,13.10
2023-04-26T20:18:25.203Z,14.60
2023-04-26T20:20:51.992Z,13.30
2023-04-26T20:23:18.980Z,12.40
2023-04-26T20:25:45.825Z,9.80
2023-04-26T20:28:12.656Z,8.80
2023-04-26T20:30:39.912Z,8.00
2023-04-26T20:33:07.218Z,7.40
2023-04-26T20:35:34.189Z,6.60
2023-04-26T20:38:01.101Z,7.20
2023-04-26T20:40:27.955Z,6.90
2023-04-26T20:42:55.083Z,6.90
2023-04-26T20:45:21.922Z,6.60
2023-04-26T20:47:48.756Z,6.30
2023-04-26T20:50:15.669Z,5.10
2023-04-26T20:52:42.849Z,3.40
2023-04-26T20:55:10.002Z,2.40
2023-04-26T20:57:37.933Z,1.70
2023-04-26T21:00:06.993Z,1.50
2023-04-26T21:02:34.483Z,1.20
2023-04-26T21:05:01.406Z,1.00
2023-04-26T21:07:28.486Z,1.00
2023-04-26T21:09:55.270Z,1.00
2023-04-26T21:12:22.242Z,0.70
2023-04-26T21:14:49.199Z,0.80
2023-04-26T21:17:16.043Z,0.80
2023-04-26T21:19:44.038Z,0.60
2023-04-26T21:24:38.206Z,0.60
2023-04-26T21:27:05.159Z,0.60
2023-04-26T21:29:32.746Z,0.50
2023-04-26T21:31:59.879Z,0.70
2023-04-26T21:34:27.336Z,0.70
2023-04-26T21:36:54.409Z,0.50
2023-04-26T21:39:21.511Z,0.50
2023-04-26T21:41:48.299Z,0.60
2023-04-26T21:44:15.295Z,0.60
2023-04-26T21:46:42.165Z,0.50
2023-04-26T21:49:09.898Z,0.30
2023-04-26T21:54:03.753Z,0.30
2023-04-26T21:56:30.750Z,0.30
2023-04-26T21:58:57.729Z,0.40
2023-04-26T22:01:24.806Z,0.50
2023-04-26T22:03:51.688Z,0.20
2023-04-26T22:06:18.745Z,0.50
2023-04-26T22:08:46.834Z,0.50
2023-04-26T22:11:13.740Z,0.40
2023-04-26T22:13:40.971Z,0.50
2023-04-26T22:16:07.754Z,0.70
2023-04-26T22:18:35.147Z,0.30
2023-04-26T22:21:02.311Z,0.40
2023-04-26T22:23:30.782Z,0.40
2023-04-26T22:26:00.144Z,0.50
2023-04-26T22:28:26.982Z,0.30
2023-04-26T22:30:53.777Z,0.30
2023-04-26T22:33:20.982Z,0.30
2023-04-26T22:35:47.901Z,0.40
2023-04-26T22:38:14.998Z,0.40
2023-04-26T22:40:41.794Z,0.50
2023-04-26T22:43:08.693Z,0.50
2023-04-26T22:45:36.059Z,0.30
2023-04-26T22:48:03.305Z,0.50
2023-04-26T22:50:30.465Z,0.30
2023-04-26T22:52:57.301Z,0.50
2023-04-26T22:55:24.416Z,0.50
2023-04-26T22:57:51.250Z,0.30
2023-04-26T23:00:19.429Z,0.40
2023-04-26T23:02:46.500Z,0.30
2023-04-26T23:05:13.316Z,0.30
2023-04-26T23:07:40.395Z,0.30
2023-04-26T23:10:07.989Z,0.60
2023-04-26T23:12:35.597Z,0.30
2023-04-26T23:15:04.541Z,0.40
2023-04-26T23:17:33.417Z,0.50
2023-04-26T23:20:00.347Z,0.50
2023-04-26T23:22:27.694Z,0.30
2023-04-26T23:24:54.506Z,0.40
2023-04-26T23:27:21.500Z,0.20
2023-04-26T23:29:49.345Z,0.30
2023-04-26T23:36:12.305Z,0.40
2023-04-26T23:38:39.434Z,0.20
2023-04-26T23:41:06.685Z,0.40
2023-04-26T23:43:33.971Z,0.20
2023-04-26T23:46:01.188Z,0.20
2023-04-26T23:48:28.820Z,0.20
2023-04-26T23:50:56.163Z,0.40
2023-04-26T23:53:23.177Z,0.40
2023-04-26T23:55:50.213Z,0.30
2023-04-26T23:58:17.264Z,0.20
